Time;durP1;ratioP1;P1;durP2;ratioP2;P2;SDS_P1;SDS_P2;PMS_P1;PMS_P2;Temp;Humidity;BMP_temperature;BMP_pressure;BME280_temperature;BME280_humidity;BME280_pressure;Samples;Min_cycle;Max_cycle;Signal;HPM_P1;HPM_P2
2022/10/16 00:01:12;;;;;;;0.00;0.00;;;11.80;99.90;;;;;;5078441;28;20043;-91
2022/10/16 00:03:42;;;;;;;0.32;0.32;;;11.80;99.90;;;;;;5077691;28;20114;-91
2022/10/16 00:06:09;;;;;;;0.20;0.15;;;11.80;99.90;;;;;;5091267;28;20109;-90
2022/10/16 00:08:35;;;;;;;0.10;0.10;;;11.80;99.90;;;;;;5078705;28;20039;-91
2022/10/16 00:11:09;;;;;;;0.10;0.10;;;11.80;99.90;;;;;;5078430;28;20043;-91
2022/10/16 00:13:37;;;;;;;0.20;0.20;;;11.80;99.90;;;;;;5095063;28;20053;-90
2022/10/16 00:16:04;;;;;;;0.10;0.10;;;11.80;99.90;;;;;;5093769;28;20134;-91
2022/10/16 00:18:30;;;;;;;0.28;0.20;;;11.80;99.90;;;;;;5093084;28;20044;-91
2022/10/16 00:21:09;;;;;;;0.20;0.20;;;11.80;99.90;;;;;;5080441;28;20051;-91
2022/10/16 00:23:38;;;;;;;0.30;0.20;;;11.80;99.90;;;;;;5081776;28;20482;-91
2022/10/16 00:26:10;;;;;;;0.10;0.10;;;11.80;99.90;;;;;;5080862;28;20436;-90
2022/10/16 00:28:37;;;;;;;0.30;0.30;;;11.80;99.90;;;;;;5081341;28;20054;-91
2022/10/16 00:31:03;;;;;;;;;;;11.80;99.90;;;;;;5082237;28;20497;-91
2022/10/16 00:33:29;;;;;;;0.13;0.08;;;12.10;99.90;;;;;;5079997;28;19927;-90
2022/10/16 00:35:58;;;;;;;0.17;0.17;;;11.80;99.90;;;;;;5080888;28;20048;-91
2022/10/16 00:38:24;;;;;;;0.00;0.00;;;11.90;99.90;;;;;;5065151;28;20035;-91
2022/10/16 00:40:52;;;;;;;0.10;0.10;;;11.80;99.90;;;;;;5068773;28;20044;-91
2022/10/16 00:43:45;;;;;;;0.20;0.20;;;11.90;99.90;;;;;;5080693;28;20039;-91
2022/10/16 00:46:15;;;;;;;0.00;0.00;;;11.80;99.90;;;;;;5080836;28;20092;-90
2022/10/16 00:48:45;;;;;;;0.10;0.10;;;11.90;99.90;;;;;;5081359;28;20046;-91
2022/10/16 00:51:10;;;;;;;0.00;0.00;;;11.90;99.90;;;;;;5081744;28;20047;-91
2022/10/16 00:53:36;;;;;;;0.00;0.00;;;11.80;99.90;;;;;;5080733;28;20058;-91
2022/10/16 00:56:03;;;;;;;0.20;0.10;;;11.80;99.90;;;;;;5097377;28;20036;-90
2022/10/16 00:58:28;;;;;;;0.50;0.20;;;11.80;99.90;;;;;;5081384;28;20040;-91
2022/10/16 01:00:54;;;;;;;0.53;0.20;;;11.80;99.90;;;;;;5098013;28;20039;-91
2022/10/16 01:03:32;;;;;;;0.00;0.00;;;11.80;99.90;;;;;;5081438;28;20047;-91
2022/10/16 01:06:26;;;;;;;0.20;0.20;;;11.80;99.90;;;;;;5080959;28;20047;-90
2022/10/16 01:09:23;;;;;;;0.10;0.10;;;11.80;99.90;;;;;;5091083;28;20490;-90
2022/10/16 01:11:55;;;;;;;0.10;0.10;;;11.80;99.90;;;;;;5060758;28;20131;-91
2022/10/16 01:14:31;;;;;;;0.10;0.10;;;11.80;99.90;;;;;;5077969;28;20044;-91
2022/10/16 01:17:06;;;;;;;0.22;0.22;;;11.80;99.90;;;;;;5062906;28;20512;-91
2022/10/16 01:19:38;;;;;;;0.10;0.10;;;11.80;99.90;;;;;;5096524;28;20438;-91
2022/10/16 01:22:06;;;;;;;0.10;0.10;;;11.70;99.90;;;;;;5081261;28;20395;-90
2022/10/16 01:24:39;;;;;;;0.10;0.10;;;11.80;99.90;;;;;;5081119;28;20065;-90
2022/10/16 01:27:09;;;;;;;0.20;0.20;;;11.70;99.90;;;;;;5079458;28;20047;-91
2022/10/16 01:29:42;;;;;;;0.10;0.10;;;11.70;99.90;;;;;;5095311;28;20134;-90
2022/10/16 01:32:33;;;;;;;0.45;0.28;;;11.70;99.90;;;;;;5080556;28;20137;-91
2022/10/16 01:35:00;;;;;;;0.20;0.20;;;11.70;99.90;;;;;;5096499;28;20078;-90
2022/10/16 01:37:37;;;;;;;0.10;0.10;;;11.60;99.90;;;;;;5096135;28;20055;-90
2022/10/16 01:40:07;;;;;;;0.20;0.20;;;11.70;99.90;;;;;;5060790;28;20043;-91
2022/10/16 01:42:38;;;;;;;0.60;0.10;;;11.70;99.90;;;;;;5074431;28;20052;-90
2022/10/16 01:45:07;;;;;;;0.20;0.10;;;11.90;99.90;;;;;;5097586;28;20073;-91
2022/10/16 01:47:35;;;;;;;0.30;0.30;;;11.70;99.90;;;;;;5079221;28;20489;-91
2022/10/16 01:50:04;;;;;;;0.40;0.17;;;11.70;99.90;;;;;;5063675;28;20525;-90
2022/10/16 01:52:34;;;;;;;0.00;0.00;;;11.80;99.90;;;;;;5097187;28;20050;-91
2022/10/16 01:55:03;;;;;;;0.10;0.10;;;11.80;99.90;;;;;;5096839;28;20043;-90
2022/10/16 01:57:31;;;;;;;0.25;0.17;;;11.80;99.90;;;;;;5096163;28;20120;-90
2022/10/16 02:00:01;;;;;;;0.10;0.10;;;12.10;99.90;;;;;;5063047;28;20468;-91
2022/10/16 02:02:30;;;;;;;0.10;0.10;;;11.80;99.90;;;;;;5096976;28;20049;-90
2022/10/16 02:05:09;;;;;;;0.00;0.00;;;11.80;99.90;;;;;;5079573;28;20448;-91
2022/10/16 02:07:35;;;;;;;0.20;0.20;;;11.80;99.90;;;;;;5079354;28;20089;-91
2022/10/16 02:10:01;;;;;;;0.20;0.20;;;11.80;99.90;;;;;;5075744;28;20075;-91
2022/10/16 02:12:30;;;;;;;0.25;0.20;;;11.80;99.90;;;;;;5080037;28;20070;-90
2022/10/16 02:14:56;;;;;;;0.45;0.10;;;11.80;99.90;;;;;;5096055;28;20115;-90
2022/10/16 02:17:23;;;;;;;0.30;0.20;;;11.80;99.90;;;;;;5114779;28;20055;-90
2022/10/16 02:19:51;;;;;;;0.20;0.15;;;11.80;99.90;;;;;;5080309;28;20051;-89
2022/10/16 02:22:31;;;;;;;0.35;0.35;;;11.80;99.90;;;;;;5080526;28;20044;-91
2022/10/16 02:25:10;;;;;;;0.57;0.45;;;11.80;99.90;;;;;;5080722;28;20066;-90
2022/10/16 02:27:59;;;;;;;0.90;0.20;;;11.80;99.90;;;;;;5079547;28;20040;-90
2022/10/16 02:30:54;;;;;;;0.10;0.10;;;11.80;99.90;;;;;;5066103;28;20052;-90
2022/10/16 02:33:22;;;;;;;0.20;0.20;;;11.80;99.90;;;;;;5029170;28;20057;-91
2022/10/16 02:35:50;;;;;;;0.20;0.20;;;11.80;99.90;;;;;;5039298;28;20044;-90
2022/10/16 02:38:17;;;;;;;0.20;0.17;;;11.90;99.90;;;;;;5037734;28;20043;-90
2022/10/16 02:40:43;;;;;;;;;;;11.80;99.90;;;;;;5039732;28;20037;-91
2022/10/16 02:43:09;;;;;;;0.00;0.00;;;11.80;99.90;;;;;;5071682;28;19924;-90
2022/10/16 02:45:37;;;;;;;0.38;0.38;;;11.80;99.90;;;;;;5056182;28;20479;-90
2022/10/16 02:48:03;;;;;;;0.10;0.10;;;11.80;99.90;;;;;;5070986;28;20044;-90
2022/10/16 02:50:29;;;;;;;0.57;0.20;;;11.90;99.90;;;;;;5073130;28;20517;-91
2022/10/16 02:52:54;;;;;;;0.57;0.10;;;11.90;99.90;;;;;;5075123;28;20040;-90
2022/10/16 02:55:20;;;;;;;0.33;0.30;;;11.90;99.90;;;;;;5039527;28;20052;-90
2022/10/16 02:57:46;;;;;;;0.20;0.20;;;11.90;99.90;;;;;;5021887;28;20044;-90
2022/10/16 03:00:14;;;;;;;0.10;0.10;;;11.90;99.90;;;;;;5054212;28;20036;-91
2022/10/16 03:02:40;;;;;;;0.03;0.03;;;11.90;99.90;;;;;;5037718;28;20102;-90
2022/10/16 03:05:06;;;;;;;0.30;0.30;;;11.90;99.90;;;;;;5051095;28;20051;-90
2022/10/16 03:07:32;;;;;;;0.30;0.20;;;12.00;99.90;;;;;;5059105;28;20054;-90
2022/10/16 03:10:00;;;;;;;0.10;0.10;;;11.90;99.90;;;;;;5054379;28;20037;-91
2022/10/16 03:12:29;;;;;;;0.20;0.20;;;11.90;99.90;;;;;;5043351;28;20494;-90
2022/10/16 03:14:56;;;;;;;0.90;0.30;;;12.00;99.90;;;;;;5073086;28;20120;-90
2022/10/16 03:17:22;;;;;;;0.28;0.28;;;12.00;99.90;;;;;;5058340;28;20036;-90
2022/10/16 03:19:48;;;;;;;0.40;0.28;;;12.00;99.90;;;;;;5064769;28;20445;-90
2022/10/16 03:22:13;;;;;;;0.00;0.00;;;12.00;99.90;;;;;;5075320;28;20135;-91
2022/10/16 03:24:39;;;;;;;0.40;0.40;;;12.00;99.90;;;;;;5025346;28;20450;-90
2022/10/16 03:27:05;;;;;;;1.03;0.37;;;12.00;99.90;;;;;;5029438;28;20079;-90
2022/10/16 03:29:32;;;;;;;0.33;0.13;;;12.00;99.90;;;;;;5017643;28;20037;-90
2022/10/16 03:31:57;;;;;;;0.17;0.10;;;12.00;99.90;;;;;;5058632;28;20433;-91
2022/10/16 03:34:24;;;;;;;0.20;0.20;;;12.00;99.90;;;;;;5074919;28;20040;-90
2022/10/16 03:36:49;;;;;;;0.00;0.00;;;12.10;99.90;;;;;;5047487;28;20073;-90
2022/10/16 03:39:15;;;;;;;0.47;0.30;;;12.00;99.90;;;;;;5055646;28;20047;-90
2022/10/16 03:41:41;;;;;;;0.10;0.10;;;12.40;99.90;;;;;;5041457;28;20047;-90
2022/10/16 03:44:06;;;;;;;0.10;0.10;;;12.10;99.90;;;;;;5041348;28;20044;-90
2022/10/16 03:46:32;;;;;;;0.10;0.10;;;12.10;99.90;;;;;;5075236;28;20044;-91
2022/10/16 03:48:58;;;;;;;0.10;0.10;;;12.10;99.90;;;;;;5056174;28;20044;-91
2022/10/16 03:51:23;;;;;;;0.50;0.47;;;12.10;99.90;;;;;;5024200;28;20086;-90
2022/10/16 03:53:49;;;;;;;0.20;0.20;;;12.10;99.90;;;;;;5061362;28;20044;-90
2022/10/16 03:56:15;;;;;;;0.30;0.30;;;12.10;99.90;;;;;;5045641;28;20048;-90
2022/10/16 03:58:41;;;;;;;0.10;0.10;;;12.10;99.90;;;;;;5061654;28;20040;-90
2022/10/16 04:01:07;;;;;;;0.23;0.23;;;12.10;99.90;;;;;;5041635;28;20052;-91
2022/10/16 04:03:33;;;;;;;0.13;0.10;;;12.10;99.90;;;;;;5059518;28;20365;-91
2022/10/16 04:05:58;;;;;;;0.60;0.20;;;12.00;99.90;;;;;;5065139;28;20482;-91
2022/10/16 04:08:24;;;;;;;0.27;0.27;;;12.00;99.90;;;;;;5072462;28;20486;-91
2022/10/16 04:10:50;;;;;;;0.20;0.20;;;12.00;99.90;;;;;;5043031;28;20048;-91
2022/10/16 04:13:16;;;;;;;0.10;0.10;;;12.00;99.90;;;;;;5025698;28;20282;-91
2022/10/16 04:15:42;;;;;;;0.20;0.20;;;12.00;99.90;;;;;;5026247;28;20452;-92
2022/10/16 04:18:07;;;;;;;0.47;0.43;;;12.00;99.90;;;;;;5061924;28;20047;-91
2022/10/16 04:20:33;;;;;;;0.20;0.20;;;11.90;99.90;;;;;;5085322;28;20044;-92
2022/10/16 04:22:59;;;;;;;0.32;0.20;;;11.90;99.90;;;;;;5078533;28;20482;-90
2022/10/16 04:25:25;;;;;;;0.20;0.20;;;11.90;99.90;;;;;;5061722;28;20441;-91
2022/10/16 04:27:53;;;;;;;0.20;0.20;;;12.00;99.90;;;;;;5062160;28;20097;-91
2022/10/16 04:30:19;;;;;;;0.20;0.10;;;12.00;99.90;;;;;;5076178;28;20399;-91
2022/10/16 04:32:49;;;;;;;0.30;0.30;;;12.00;99.90;;;;;;5096307;28;20417;-91
2022/10/16 04:35:16;;;;;;;0.47;0.30;;;12.10;99.90;;;;;;5078037;28;20048;-91
2022/10/16 04:37:41;;;;;;;0.45;0.22;;;11.90;99.90;;;;;;5078518;28;20048;-91
2022/10/16 04:40:07;;;;;;;0.43;0.10;;;11.90;99.90;;;;;;5043977;28;20055;-90
2022/10/16 04:42:35;;;;;;;0.20;0.20;;;11.90;99.90;;;;;;5060030;28;20047;-90
2022/10/16 04:45:01;;;;;;;0.30;0.20;;;11.90;99.90;;;;;;5081267;28;20193;-90
2022/10/16 04:47:27;;;;;;;0.35;0.25;;;11.90;99.90;;;;;;5081881;28;20043;-90
2022/10/16 04:49:53;;;;;;;0.00;0.00;;;11.90;99.90;;;;;;5064349;28;20501;-90
2022/10/16 04:52:21;;;;;;;0.47;0.30;;;11.90;99.90;;;;;;5047892;28;20148;-90
2022/10/16 04:54:47;;;;;;;0.05;0.05;;;11.90;99.90;;;;;;5061076;28;20084;-90
2022/10/16 04:57:12;;;;;;;0.20;0.20;;;11.90;99.90;;;;;;5061315;28;20109;-91
2022/10/16 04:59:38;;;;;;;0.10;0.10;;;11.90;99.90;;;;;;5061477;28;20294;-91
2022/10/16 05:02:04;;;;;;;0.27;0.23;;;11.90;99.90;;;;;;5056146;28;20043;-91
2022/10/16 05:04:32;;;;;;;0.13;0.13;;;11.90;99.90;;;;;;5067672;28;20046;-92
2022/10/16 05:06:58;;;;;;;0.10;0.10;;;11.90;99.90;;;;;;5079678;28;20043;-91
2022/10/16 05:09:24;;;;;;;0.30;0.30;;;12.00;99.90;;;;;;5046804;28;20046;-91
2022/10/16 05:11:52;;;;;;;0.30;0.20;;;11.80;99.90;;;;;;5052870;28;20042;-92
2022/10/16 05:14:18;;;;;;;0.35;0.10;;;12.00;99.90;;;;;;5081619;28;20047;-92
2022/10/16 05:16:44;;;;;;;0.07;0.07;;;12.00;99.90;;;;;;5064821;28;20137;-91
2022/10/16 05:19:10;;;;;;;0.20;0.20;;;12.10;99.90;;;;;;5076421;28;20122;-90
2022/10/16 05:21:35;;;;;;;0.43;0.30;;;11.90;99.90;;;;;;5060022;28;20166;-90
2022/10/16 05:24:01;;;;;;;0.10;0.10;;;11.90;99.90;;;;;;5044417;28;20069;-91
2022/10/16 05:26:27;;;;;;;0.10;0.10;;;11.90;99.90;;;;;;5043892;28;20044;-91
2022/10/16 05:28:52;;;;;;;0.27;0.20;;;11.90;99.90;;;;;;5044424;28;20043;-90
2022/10/16 05:31:18;;;;;;;0.50;0.20;;;11.90;99.90;;;;;;5042474;28;20063;-92
2022/10/16 05:33:44;;;;;;;0.60;0.40;;;11.90;99.90;;;;;;5059329;28;20052;-91
2022/10/16 05:36:10;;;;;;;1.40;0.33;;;11.90;99.90;;;;;;5061989;28;20051;-91
2022/10/16 05:38:37;;;;;;;0.25;0.25;;;11.60;99.90;;;;;;5081480;28;20114;-91
2022/10/16 05:41:04;;;;;;;0.20;0.10;;;11.90;99.90;;;;;;5092844;28;20123;-91
2022/10/16 05:43:31;;;;;;;0.30;0.30;;;11.90;99.90;;;;;;5073139;28;20043;-91
2022/10/16 05:45:59;;;;;;;0.20;0.20;;;11.90;99.90;;;;;;5097264;28;20055;-91
2022/10/16 05:48:25;;;;;;;0.20;0.20;;;11.90;99.90;;;;;;5097313;28;20432;-91
2022/10/16 05:51:00;;;;;;;0.40;0.32;;;11.90;99.90;;;;;;5090425;28;20452;-91
2022/10/16 05:53:28;;;;;;;0.68;0.55;;;11.90;99.90;;;;;;5095182;28;20054;-91
2022/10/16 05:55:54;;;;;;;0.30;0.20;;;11.90;99.90;;;;;;5097480;28;20058;-90
2022/10/16 05:58:20;;;;;;;;;;;11.90;99.90;;;;;;5084888;28;20047;-91
2022/10/16 06:00:57;;;;;;;0.13;0.10;;;11.90;99.90;;;;;;5094311;28;20396;-92
2022/10/16 06:03:23;;;;;;;1.15;0.28;;;11.90;99.90;;;;;;5088829;28;20039;-91
2022/10/16 06:05:49;;;;;;;0.20;0.20;;;11.90;99.90;;;;;;5078103;28;20050;-91
2022/10/16 06:08:15;;;;;;;0.52;0.25;;;11.90;99.90;;;;;;5071096;28;20286;-91
2022/10/16 06:10:40;;;;;;;0.73;0.70;;;11.90;99.90;;;;;;5043210;28;20047;-91
2022/10/16 06:13:06;;;;;;;0.13;0.13;;;11.90;99.90;;;;;;5025714;28;20059;-90
2022/10/16 06:15:32;;;;;;;0.00;0.00;;;12.00;99.90;;;;;;5059725;28;20051;-91
2022/10/16 06:17:57;;;;;;;0.40;0.30;;;12.00;99.90;;;;;;5038321;28;20531;-90
2022/10/16 06:20:23;;;;;;;0.60;0.33;;;12.00;99.90;;;;;;5074129;28;20048;-90
2022/10/16 06:22:49;;;;;;;0.40;0.30;;;12.00;99.90;;;;;;5074774;28;20051;-90
2022/10/16 06:25:14;;;;;;;0.30;0.30;;;11.90;99.90;;;;;;5059325;28;20051;-90
2022/10/16 06:27:41;;;;;;;0.17;0.17;;;12.00;99.90;;;;;;5062984;28;20101;-91
2022/10/16 06:30:07;;;;;;;0.17;0.10;;;12.00;99.90;;;;;;5079731;28;20445;-90
2022/10/16 06:32:33;;;;;;;1.25;0.38;;;12.00;99.90;;;;;;5086809;28;20046;-90
2022/10/16 06:34:59;;;;;;;0.10;0.10;;;12.00;99.90;;;;;;5045869;28;20401;-90
2022/10/16 06:37:24;;;;;;;0.17;0.10;;;12.10;99.90;;;;;;5021299;28;20384;-90
2022/10/16 06:39:52;;;;;;;0.20;0.20;;;12.10;99.90;;;;;;5056274;28;20041;-90
2022/10/16 06:42:18;;;;;;;0.47;0.30;;;12.10;99.90;;;;;;5040555;28;20056;-89
2022/10/16 06:44:44;;;;;;;0.20;0.10;;;12.10;99.90;;;;;;5059530;28;20083;-93
2022/10/16 06:47:10;;;;;;;0.30;0.30;;;12.10;99.90;;;;;;5062802;28;20090;-86
2022/10/16 06:49:35;;;;;;;0.10;0.10;;;12.10;99.90;;;;;;5089686;28;20443;-91
2022/10/16 06:52:01;;;;;;;0.43;0.20;;;12.10;99.90;;;;;;5047663;28;20489;-88
2022/10/16 06:54:30;;;;;;;0.10;0.10;;;12.20;99.90;;;;;;5058905;28;20079;-87
2022/10/16 06:56:56;;;;;;;0.13;0.10;;;12.20;99.90;;;;;;5057791;28;20044;-88
2022/10/16 06:59:22;;;;;;;0.20;0.20;;;12.20;99.90;;;;;;5039223;28;20178;-91
2022/10/16 07:01:47;;;;;;;0.30;0.10;;;12.20;99.90;;;;;;5059409;28;20425;-92
2022/10/16 07:04:13;;;;;;;0.10;0.10;;;12.20;99.90;;;;;;5076010;28;20051;-90
2022/10/16 07:06:39;;;;;;;0.60;0.20;;;12.30;99.90;;;;;;5061067;28;20373;-91
2022/10/16 07:09:08;;;;;;;0.43;0.43;;;12.20;99.90;;;;;;5087386;28;20127;-91
2022/10/16 07:11:34;;;;;;;0.20;0.10;;;12.30;99.90;;;;;;5084769;28;20039;-91
2022/10/16 07:14:00;;;;;;;0.30;0.30;;;12.30;99.90;;;;;;5068300;28;20127;-92
2022/10/16 07:16:28;;;;;;;0.30;0.10;;;12.30;99.90;;;;;;5060290;28;20055;-96
2022/10/16 07:18:58;;;;;;;0.13;0.10;;;12.30;99.90;;;;;;5079443;28;20110;-96
2022/10/16 07:21:26;;;;;;;0.10;0.10;;;12.30;99.90;;;;;;5080162;28;20046;-94
2022/10/16 07:23:52;;;;;;;0.20;0.20;;;12.40;99.90;;;;;;5085242;28;20048;-95
2022/10/16 07:26:18;;;;;;;;;;;12.40;99.90;;;;;;5060398;28;20090;-92
2022/10/16 07:28:44;;;;;;;0.20;0.20;;;12.40;99.90;;;;;;5058513;28;19967;-94
2022/10/16 07:31:13;;;;;;;0.30;0.30;;;12.40;99.90;;;;;;5058827;28;20117;-94
2022/10/16 07:33:41;;;;;;;0.20;0.10;;;12.40;99.90;;;;;;5093514;28;20058;-95
2022/10/16 07:36:07;;;;;;;0.10;0.10;;;12.50;99.90;;;;;;5058950;28;20127;-90
2022/10/16 07:38:33;;;;;;;0.15;0.15;;;12.50;99.90;;;;;;5075228;28;20127;-94
2022/10/16 07:41:01;;;;;;;0.28;0.10;;;12.60;99.90;;;;;;5040911;28;20138;-89
2022/10/16 07:43:28;;;;;;;0.10;0.10;;;12.60;99.90;;;;;;5075891;28;20095;-96
2022/10/16 07:45:54;;;;;;;;;;;12.70;99.90;;;;;;5077254;28;20056;-91
2022/10/16 07:48:22;;;;;;;0.10;0.10;;;12.60;99.90;;;;;;5078626;28;19927;-95
2022/10/16 07:50:47;;;;;;;0.10;0.10;;;12.70;99.90;;;;;;5056590;28;20608;-96
2022/10/16 07:53:16;;;;;;;0.17;0.17;;;12.70;99.90;;;;;;5104392;28;20054;-96
2022/10/16 07:55:42;;;;;;;0.30;0.30;;;12.70;99.90;;;;;;5065145;28;20044;-95
2022/10/16 07:58:08;;;;;;;0.20;0.20;;;12.70;99.90;;;;;;5086436;28;20105;-89
2022/10/16 08:00:35;;;;;;;0.20;0.20;;;12.70;99.90;;;;;;5102250;28;20044;-96
2022/10/16 08:03:01;;;;;;;0.30;0.30;;;12.80;99.90;;;;;;5082694;28;20044;-94
2022/10/16 08:05:32;;;;;;;2.10;0.40;;;12.80;99.90;;;;;;5093104;28;20040;-94
2022/10/16 08:08:07;;;;;;;1.85;0.20;;;12.80;99.90;;;;;;5117286;22;20111;-96
2022/10/16 08:10:32;;;;;;;0.10;0.10;;;12.50;99.90;;;;;;5080675;28;20044;-95
2022/10/16 08:12:58;;;;;;;0.00;0.00;;;12.80;99.90;;;;;;5091430;28;20375;-93
2022/10/16 08:15:24;;;;;;;0.08;0.05;;;12.70;99.90;;;;;;5073664;28;20072;-91
2022/10/16 08:18:01;;;;;;;0.00;0.00;;;12.90;99.90;;;;;;5091052;28;20048;-94
2022/10/16 08:20:28;;;;;;;0.32;0.15;;;12.90;99.90;;;;;;5075196;28;20478;-95
2022/10/16 08:22:55;;;;;;;0.00;0.00;;;13.00;99.90;;;;;;5080058;28;20040;-95
2022/10/16 08:25:24;;;;;;;;;;;13.00;99.90;;;;;;5096184;28;20040;-93
2022/10/16 08:27:50;;;;;;;0.10;0.10;;;12.30;99.90;;;;;;5058405;28;19920;-96
2022/10/16 08:30:17;;;;;;;0.20;0.20;;;13.20;99.90;;;;;;5048400;28;20094;-93
2022/10/16 08:32:43;;;;;;;0.15;0.15;;;13.30;99.90;;;;;;5075835;28;20326;-95
2022/10/16 08:35:13;;;;;;;0.10;0.10;;;13.50;99.90;;;;;;5099935;28;20028;-96
2022/10/16 08:37:39;;;;;;;0.28;0.28;;;13.40;99.90;;;;;;5081018;28;20020;-96
2022/10/16 08:40:19;;;;;;;0.00;0.00;;;13.50;99.90;;;;;;5059583;28;20050;-96
2022/10/16 08:43:24;;;;;;;0.73;0.22;;;13.70;99.90;;;;;;5094978;28;20047;-95
2022/10/16 08:46:18;;;;;;;0.00;0.00;;;14.70;99.90;;;;;;5079969;28;20047;-96
2022/10/16 08:48:53;;;;;;;0.10;0.00;;;14.00;99.90;;;;;;5077637;28;20127;-90
2022/10/16 08:51:23;;;;;;;0.08;0.08;;;14.20;99.90;;;;;;5095003;28;20040;-96
2022/10/16 08:53:57;;;;;;;0.00;0.00;;;14.30;99.90;;;;;;5100608;28;20044;-96
2022/10/16 08:56:24;;;;;;;0.00;0.00;;;14.40;99.90;;;;;;5095375;28;20048;-96
2022/10/16 08:58:51;;;;;;;0.20;0.10;;;14.40;99.90;;;;;;5083761;28;20047;-96
2022/10/16 09:01:20;;;;;;;0.20;0.20;;;14.30;99.90;;;;;;5098589;28;20070;-95
2022/10/16 09:04:20;;;;;;;0.10;0.00;;;14.30;99.90;;;;;;5078900;28;20915;-96
2022/10/16 09:06:55;;;;;;;0.55;0.10;;;14.30;99.90;;;;;;5076252;28;20044;-95
2022/10/16 09:09:35;;;;;;;0.10;0.10;;;14.30;99.90;;;;;;5095989;28;20070;-96
2022/10/16 09:12:01;;;;;;;0.10;0.05;;;14.40;99.90;;;;;;5090213;28;20391;-96
2022/10/16 09:14:51;;;;;;;0.10;0.10;;;14.50;99.90;;;;;;5078109;28;20039;-96
2022/10/16 09:17:35;;;;;;;0.20;0.20;;;14.50;99.90;;;;;;5095046;28;20040;-95
2022/10/16 09:20:07;;;;;;;0.05;0.05;;;14.60;99.90;;;;;;5094134;28;20048;-95
2022/10/16 09:22:32;;;;;;;0.32;0.00;;;14.70;99.90;;;;;;5079197;28;20062;-94
2022/10/16 09:25:12;;;;;;;0.03;0.03;;;14.70;99.90;;;;;;5079059;28;20495;-91
2022/10/16 09:27:50;;;;;;;0.30;0.20;;;14.80;99.90;;;;;;5081571;28;20061;-95
2022/10/16 09:30:19;;;;;;;0.00;0.00;;;14.90;99.90;;;;;;5078161;28;20047;-91
2022/10/16 09:32:49;;;;;;;0.10;0.10;;;15.00;99.90;;;;;;5094873;28;20559;-96
2022/10/16 09:35:35;;;;;;;0.00;0.00;;;15.00;99.90;;;;;;5074514;28;20051;-95
2022/10/16 09:38:00;;;;;;;0.28;0.13;;;15.10;99.90;;;;;;5074368;28;20426;-96
2022/10/16 09:40:38;;;;;;;0.00;0.00;;;15.10;99.90;;;;;;5046683;28;20132;-96
2022/10/16 09:43:29;;;;;;;0.00;0.00;;;15.20;99.90;;;;;;5074805;28;20470;-96
2022/10/16 09:46:04;;;;;;;0.80;0.03;;;15.30;99.90;;;;;;5093444;28;20071;-93
2022/10/16 09:48:44;;;;;;;0.00;0.00;;;15.40;99.90;;;;;;5096773;28;20048;-96
2022/10/16 09:51:35;;;;;;;0.20;0.20;;;15.40;99.90;;;;;;5077607;28;20497;-96
2022/10/16 09:54:07;;;;;;;0.10;0.10;;;15.50;99.90;;;;;;5077246;28;20044;-92
2022/10/16 09:56:41;;;;;;;0.43;0.10;;;15.60;99.90;;;;;;5439233;22;20500;-93
2022/10/16 09:59:18;;;;;;;0.08;0.08;;;15.20;99.90;;;;;;5124781;27;20039;-96
2022/10/16 10:01:55;;;;;;;0.00;0.00;;;15.20;99.90;;;;;;5106758;27;20042;-91
2022/10/16 10:04:22;;;;;;;;;;;15.80;99.90;;;;;;5119068;27;20515;-95
2022/10/16 10:06:56;;;;;;;0.03;0.03;;;15.70;99.90;;;;;;5133948;27;19919;-96
2022/10/16 10:09:40;;;;;;;0.00;0.00;;;15.70;99.90;;;;;;5119840;27;20312;-91
2022/10/16 10:12:16;;;;;;;0.52;0.10;;;15.70;99.90;;;;;;5136737;27;20147;-94
2022/10/16 10:15:12;;;;;;;0.08;0.08;;;15.60;99.90;;;;;;5128068;27;20043;-96
2022/10/16 10:18:24;;;;;;;;;;;;;;;;;;;;;
2022/10/16 10:21:15;;;;;;;0.10;0.10;;;15.00;99.90;;;;;;5109575;22;20075;-96
2022/10/16 10:23:41;;;;;;;0.10;0.10;;;15.60;99.90;;;;;;5042142;28;20544;-96
2022/10/16 10:26:22;;;;;;;0.10;0.10;;;15.60;99.90;;;;;;5038562;28;20084;-92
2022/10/16 10:29:04;;;;;;;0.25;0.25;;;15.50;99.90;;;;;;5059472;28;20052;-92
2022/10/16 10:31:53;;;;;;;0.03;0.03;;;15.50;99.90;;;;;;5060634;28;20087;-93
2022/10/16 10:34:39;;;;;;;0.15;0.15;;;16.00;99.90;;;;;;5049322;28;20044;-95
2022/10/16 10:37:13;;;;;;;0.20;0.10;;;15.50;99.90;;;;;;5048106;28;20055;-94
2022/10/16 10:39:48;;;;;;;0.03;0.03;;;15.90;99.90;;;;;;5042354;28;20052;-94
2022/10/16 10:42:47;;;;;;;0.10;0.10;;;16.00;99.90;;;;;;5241200;22;20115;-96
2022/10/16 10:48:04;;;;;;;0.00;0.00;;;16.40;99.90;;;;;;5356971;22;20259;-95
2022/10/16 10:50:52;;;;;;;0.85;0.00;;;16.50;99.90;;;;;;5094370;28;20070;-93
2022/10/16 10:53:29;;;;;;;0.03;0.03;;;16.50;99.90;;;;;;5081076;28;20043;-95
2022/10/16 10:56:10;;;;;;;0.00;0.00;;;16.50;99.90;;;;;;5078946;28;20043;-95
2022/10/16 10:58:54;;;;;;;0.10;0.10;;;16.60;99.90;;;;;;5090308;28;20082;-95
2022/10/16 11:01:40;;;;;;;0.50;0.13;;;16.60;99.90;;;;;;5099508;28;20040;-96
2022/10/16 11:04:11;;;;;;;0.30;0.13;;;16.50;99.90;;;;;;5159063;22;20031;31
2022/10/16 11:06:47;;;;;;;1.27;0.10;;;16.50;99.90;;;;;;5055514;28;20044;-96
2022/10/16 11:10:02;;;;;;;0.35;0.25;;;16.70;99.90;;;;;;5054604;28;20044;-96
2022/10/16 11:12:34;;;;;;;0.10;0.10;;;15.70;99.90;;;;;;5029486;28;20048;-88
2022/10/16 11:15:25;;;;;;;0.45;0.32;;;17.00;99.90;;;;;;5037456;28;20056;-90
2022/10/16 11:17:57;;;;;;;0.43;0.30;;;17.10;99.90;;;;;;5052634;28;20479;-95
2022/10/16 11:20:24;;;;;;;0.00;0.00;;;17.20;99.90;;;;;;5055088;28;20059;-91
2022/10/16 11:23:15;;;;;;;0.10;0.10;;;17.10;99.90;;;;;;5037289;28;20044;-95
2022/10/16 11:25:43;;;;;;;0.10;0.10;;;16.90;99.90;;;;;;5057853;28;20474;-95
2022/10/16 11:28:26;;;;;;;0.10;0.10;;;17.00;99.90;;;;;;5039329;28;20040;-95
2022/10/16 11:30:55;;;;;;;0.10;0.10;;;17.00;99.90;;;;;;5055521;28;20094;-96
2022/10/16 11:33:40;;;;;;;1.65;0.08;;;17.20;99.90;;;;;;5059354;28;20076;-96
2022/10/16 11:36:09;;;;;;;0.00;0.00;;;17.30;99.90;;;;;;5057153;28;20021;-96
2022/10/16 11:39:02;;;;;;;0.25;0.00;;;17.50;99.90;;;;;;5040129;28;20040;-96
2022/10/16 11:41:37;;;;;;;0.10;0.10;;;17.60;99.90;;;;;;5053516;28;20041;-87
2022/10/16 11:44:15;;;;;;;0.10;0.10;;;17.80;99.90;;;;;;5053356;28;20040;-96
2022/10/16 11:46:48;;;;;;;0.10;0.10;;;18.00;99.90;;;;;;5054076;28;20048;-92
2022/10/16 11:49:18;;;;;;;0.00;0.00;;;18.10;99.90;;;;;;5036087;28;20089;-88
2022/10/16 11:51:55;;;;;;;0.10;0.10;;;18.30;99.90;;;;;;5054930;28;20191;-93
2022/10/16 11:54:39;;;;;;;0.10;0.10;;;18.10;99.90;;;;;;5035939;28;20132;-89
2022/10/16 11:57:20;;;;;;;0.10;0.10;;;17.80;99.90;;;;;;5068481;28;20041;-91
2022/10/16 12:00:03;;;;;;;0.08;0.08;;;17.50;99.90;;;;;;5036352;28;20036;-87
2022/10/16 12:02:35;;;;;;;0.05;0.00;;;17.20;99.90;;;;;;5034244;28;20049;-88
2022/10/16 12:05:16;;;;;;;0.15;0.15;;;17.10;99.90;;;;;;5034292;28;20494;-87
2022/10/16 12:07:51;;;;;;;0.17;0.15;;;17.30;99.90;;;;;;5018337;28;20531;-87
2022/10/16 12:10:28;;;;;;;0.60;0.28;;;17.40;99.90;;;;;;5017474;28;20115;-88
2022/10/16 12:12:54;;;;;;;0.10;0.10;;;17.50;99.90;;;;;;5018189;28;20475;-88
2022/10/16 12:15:20;;;;;;;0.10;0.10;;;17.80;99.90;;;;;;5018744;28;20049;-88
2022/10/16 12:17:46;;;;;;;0.20;0.20;;;17.90;99.90;;;;;;5022001;28;20057;-87
2022/10/16 12:20:12;;;;;;;0.10;0.10;;;17.90;99.90;;;;;;5021289;28;20083;-87
2022/10/16 12:22:50;;;;;;;0.20;0.10;;;17.90;99.90;;;;;;5021999;28;20446;-88
2022/10/16 12:25:37;;;;;;;0.63;0.00;;;18.10;99.90;;;;;;5021293;28;20284;-87
2022/10/16 12:28:20;;;;;;;0.50;0.20;;;18.30;99.90;;;;;;5021892;28;20049;-88
2022/10/16 12:30:57;;;;;;;0.08;0.08;;;18.50;99.90;;;;;;5021822;28;20056;-88
2022/10/16 12:33:26;;;;;;;0.00;0.00;;;18.60;99.90;;;;;;5021192;28;20052;-87
2022/10/16 12:35:53;;;;;;;0.00;0.00;;;18.50;99.90;;;;;;5021861;28;20057;-88
2022/10/16 12:38:25;;;;;;;0.10;0.10;;;18.30;99.90;;;;;;5004780;28;20052;-88
2022/10/16 12:41:10;;;;;;;0.63;0.20;;;18.20;99.90;;;;;;5038356;28;20045;-88
2022/10/16 12:43:47;;;;;;;0.28;0.00;;;18.10;99.90;;;;;;5021722;28;20100;-87
2022/10/16 12:46:13;;;;;;;0.00;0.00;;;18.10;99.90;;;;;;5021034;28;20495;-87
2022/10/16 12:48:41;;;;;;;0.03;0.00;;;18.30;99.90;;;;;;5038003;28;20084;-88
2022/10/16 12:51:35;;;;;;;0.15;0.15;;;18.40;99.90;;;;;;5005503;28;20045;-88
2022/10/16 12:54:13;;;;;;;0.10;0.10;;;18.60;99.90;;;;;;5021443;28;20049;-88
2022/10/16 12:56:57;;;;;;;0.08;0.08;;;18.80;99.90;;;;;;5021147;28;20060;-88
2022/10/16 12:59:37;;;;;;;0.35;0.15;;;18.80;99.90;;;;;;5036822;28;20033;-88
2022/10/16 13:02:18;;;;;;;0.20;0.20;;;19.00;99.90;;;;;;5021219;28;20055;-88
2022/10/16 13:04:56;;;;;;;0.00;0.00;;;19.10;99.90;;;;;;5037627;28;20053;-88
2022/10/16 13:07:25;;;;;;;0.10;0.10;;;19.10;99.90;;;;;;5020662;28;20041;-88
2022/10/16 13:09:55;;;;;;;0.25;0.00;;;19.10;99.90;;;;;;5020816;28;20553;-88
2022/10/16 13:12:24;;;;;;;0.10;0.00;;;19.10;99.90;;;;;;5036832;28;20057;-88
2022/10/16 13:14:52;;;;;;;0.32;0.20;;;19.20;99.90;;;;;;5021061;28;20053;-88